createdAt,value
2018-12-26T00:00:47.716Z,15.87
2018-12-26T00:03:37.591Z,16.90
2018-12-26T00:06:27.741Z,15.80
2018-12-26T00:09:17.626Z,15.83
2018-12-26T00:12:07.781Z,15.83
2018-12-26T00:14:57.643Z,15.67
2018-12-26T00:17:47.807Z,15.93
2018-12-26T00:20:37.686Z,15.80
2018-12-26T00:23:27.845Z,15.80
2018-12-26T00:26:17.727Z,15.43
2018-12-26T00:29:07.567Z,15.30
2018-12-26T00:31:57.410Z,16.07
2018-12-26T00:34:47.576Z,15.83
2018-12-26T00:37:37.771Z,16.83
2018-12-26T00:40:27.596Z,15.97
2018-12-26T00:42:58.484Z,15.93
2018-12-26T00:45:44.703Z,16.60
2018-12-26T00:48:15.829Z,16.37
2018-12-26T00:51:05.797Z,16.10
2018-12-26T00:53:56.546Z,15.80
2018-12-26T00:56:46.466Z,16.13
2018-12-26T00:59:36.297Z,16.07
2018-12-26T01:02:26.487Z,16.20
2018-12-26T01:05:16.382Z,16.03
2018-12-26T01:08:06.546Z,16.70
2018-12-26T01:10:56.444Z,16.07
2018-12-26T01:13:46.889Z,16.33
2018-12-26T01:16:17.952Z,15.90
2018-12-26T01:19:07.805Z,15.20
2018-12-26T01:21:57.712Z,15.50
2018-12-26T01:24:47.605Z,15.20
2018-12-26T01:27:36.989Z,15.93
2018-12-26T01:30:26.176Z,15.37
2018-12-26T01:33:16.063Z,15.80
2018-12-26T01:36:06.212Z,17.40
2018-12-26T01:38:56.114Z,15.90
2018-12-26T01:41:46.030Z,15.27
2018-12-26T01:44:36.204Z,16.80
2018-12-26T01:47:18.749Z,15.53
2018-12-26T01:50:01.104Z,16.20
2018-12-26T01:52:50.960Z,16.97
2018-12-26T01:55:21.865Z,16.33
2018-12-26T01:58:11.806Z,18.07
2018-12-26T02:00:42.921Z,17.10
2018-12-26T02:03:32.828Z,16.43
2018-12-26T02:06:22.700Z,16.80
2018-12-26T02:12:09.341Z,16.23
2018-12-26T02:14:59.241Z,16.73
2018-12-26T02:17:49.106Z,16.20
2018-12-26T02:20:39.035Z,17.20
2018-12-26T02:23:28.921Z,17.37
2018-12-26T02:26:18.962Z,17.27
2018-12-26T02:29:09.200Z,18.80
2018-12-26T02:31:59.188Z,17.83
2018-12-26T02:34:49.060Z,16.77
2018-12-26T02:37:38.945Z,17.73
2018-12-26T02:40:28.854Z,17.53
2018-12-26T02:43:18.733Z,17.33
2018-12-26T02:46:08.656Z,17.17
2018-12-26T02:48:51.321Z,18.03
2018-12-26T02:51:41.174Z,17.83
2018-12-26T02:54:31.116Z,17.13
2018-12-26T02:57:20.975Z,17.83
2018-12-26T02:59:51.913Z,18.47
2018-12-26T03:02:22.847Z,18.23
2018-12-26T03:04:54.278Z,18.30
2018-12-26T03:07:44.234Z,18.27
2018-12-26T03:10:34.072Z,17.50
2018-12-26T03:13:24.016Z,17.27
2018-12-26T03:16:13.893Z,18.70
2018-12-26T03:19:03.764Z,18.13
2018-12-26T03:21:53.624Z,17.70
2018-12-26T03:24:43.501Z,18.43
2018-12-26T03:27:33.357Z,18.53
2018-12-26T03:30:23.243Z,18.43
2018-12-26T03:33:13.188Z,18.07
2018-12-26T03:36:03.431Z,18.30
2018-12-26T03:38:53.305Z,18.47
2018-12-26T03:41:43.478Z,17.17
2018-12-26T03:44:53.801Z,18.67
2018-12-26T03:48:04.521Z,18.17
2018-12-26T03:50:46.786Z,17.83
2018-12-26T03:53:36.944Z,18.43
2018-12-26T03:56:26.816Z,18.83
2018-12-26T03:59:16.832Z,18.10
2018-12-26T04:02:06.719Z,17.90
2018-12-26T04:04:56.614Z,18.57
2018-12-26T04:07:46.610Z,16.87
2018-12-26T04:10:37.001Z,17.73
2018-12-26T04:13:27.002Z,18.20
2018-12-26T04:16:17.165Z,18.70
2018-12-26T04:19:07.058Z,18.37
2018-12-26T04:22:17.696Z,18.63
2018-12-26T04:25:07.837Z,20.13
2018-12-26T04:27:57.794Z,19.80
2018-12-26T04:30:28.681Z,21.17
2018-12-26T04:33:18.900Z,20.57
2018-12-26T04:36:08.734Z,20.60
2018-12-26T04:38:58.715Z,20.97
2018-12-26T04:41:48.575Z,20.93
2018-12-26T04:44:38.578Z,20.63
2018-12-26T04:47:21.471Z,21.67
2018-12-26T04:50:11.355Z,22.17
2018-12-26T04:53:01.333Z,24.03
2018-12-26T04:55:32.208Z,24.90
2018-12-26T04:58:22.078Z,24.93
2018-12-26T05:01:11.946Z,24.47
2018-12-26T05:04:02.117Z,27.00
2018-12-26T05:06:51.981Z,25.00
2018-12-26T05:09:42.052Z,26.37
2018-12-26T05:12:32.271Z,26.53
2018-12-26T05:15:22.130Z,27.07
2018-12-26T05:18:11.975Z,27.23
2018-12-26T05:21:01.833Z,25.97
2018-12-26T05:23:32.856Z,26.90
2018-12-26T05:26:22.714Z,26.63
2018-12-26T05:29:12.614Z,27.27
2018-12-26T05:32:02.500Z,26.80
2018-12-26T05:34:52.377Z,27.37
2018-12-26T05:37:42.310Z,26.83
2018-12-26T05:40:32.326Z,27.30
2018-12-26T05:43:22.211Z,28.10
2018-12-26T05:46:12.416Z,29.33
2018-12-26T05:48:54.675Z,28.60
2018-12-26T05:51:44.691Z,28.83
2018-12-26T05:54:34.930Z,29.70
2018-12-26T05:57:24.899Z,28.10
2018-12-26T06:00:14.817Z,30.37
2018-12-26T06:02:45.660Z,30.97
2018-12-26T06:05:36.116Z,30.83
2018-12-26T06:08:26.533Z,30.23
2018-12-26T06:11:16.421Z,33.73
2018-12-26T06:14:06.594Z,32.20
2018-12-26T06:16:56.720Z,31.77
2018-12-26T06:19:46.954Z,30.93
2018-12-26T06:22:36.862Z,32.90
2018-12-26T06:25:26.763Z,33.03
2018-12-26T06:28:16.901Z,33.17
2018-12-26T06:31:06.807Z,34.23
2018-12-26T06:33:56.645Z,32.30
2018-12-26T06:36:46.900Z,32.87
2018-12-26T06:39:37.189Z,32.93
2018-12-26T06:42:27.076Z,33.27
2018-12-26T06:44:58.010Z,33.30
2018-12-26T06:47:47.955Z,31.63
2018-12-26T06:50:31.182Z,31.27
2018-12-26T06:53:21.088Z,31.63
2018-12-26T06:56:10.937Z,31.23
2018-12-26T06:59:00.845Z,32.67
2018-12-26T07:01:50.717Z,32.50
2018-12-26T07:04:40.596Z,31.63
2018-12-26T07:07:30.911Z,31.97
2018-12-26T07:10:20.815Z,32.90
2018-12-26T07:13:11.005Z,32.80
2018-12-26T07:16:00.977Z,33.10
2018-12-26T07:18:51.566Z,32.73
2018-12-26T07:21:41.412Z,32.27
2018-12-26T07:24:31.285Z,31.53
2018-12-26T07:27:21.132Z,31.87
2018-12-26T07:30:11.265Z,31.57
2018-12-26T07:32:42.156Z,31.10
2018-12-26T07:35:32.282Z,31.03
2018-12-26T07:38:22.267Z,32.33
2018-12-26T07:41:12.172Z,31.43
2018-12-26T07:43:43.390Z,32.37
2018-12-26T07:46:14.273Z,32.10
2018-12-26T07:48:56.703Z,32.77
2018-12-26T07:51:46.671Z,32.83
2018-12-26T07:54:36.505Z,32.87
2018-12-26T07:57:26.603Z,32.37
2018-12-26T08:00:16.755Z,32.73
2018-12-26T08:03:06.640Z,34.90
2018-12-26T08:05:56.839Z,34.13
2018-12-26T08:08:46.682Z,34.77
2018-12-26T08:11:17.584Z,34.40
2018-12-26T08:14:07.435Z,35.03
2018-12-26T08:16:57.312Z,34.07
2018-12-26T08:19:47.502Z,36.13
2018-12-26T08:22:37.687Z,36.87
2018-12-26T08:25:27.810Z,36.20
2018-12-26T08:28:26.299Z,35.03
2018-12-26T08:31:09.645Z,37.43
2018-12-26T08:33:40.504Z,37.60
2018-12-26T08:36:30.779Z,37.67
2018-12-26T08:39:20.679Z,37.40
2018-12-26T08:42:11.097Z,38.73
2018-12-26T08:45:00.969Z,38.37
2018-12-26T08:47:32.123Z,38.20
2018-12-26T08:50:22.128Z,40.10
2018-12-26T08:53:12.088Z,40.17
2018-12-26T08:55:43.006Z,41.07
2018-12-26T08:58:35.292Z,41.40
2018-12-26T09:01:24.490Z,40.10
2018-12-26T09:04:14.378Z,42.27
2018-12-26T09:07:04.396Z,41.60
2018-12-26T09:09:54.236Z,42.33
2018-12-26T09:12:44.495Z,42.67
2018-12-26T09:15:34.349Z,43.57
2018-12-26T09:18:24.234Z,43.70
2018-12-26T09:21:14.096Z,43.97
2018-12-26T09:23:45.010Z,41.10
2018-12-26T09:26:38.113Z,43.43
2018-12-26T09:29:28.014Z,43.47
2018-12-26T09:32:17.890Z,43.47
2018-12-26T09:35:09.358Z,43.20
2018-12-26T09:37:59.518Z,38.63
2018-12-26T09:40:49.420Z,42.50
2018-12-26T09:43:39.298Z,42.07
2018-12-26T09:46:29.549Z,43.37
2018-12-26T09:49:12.163Z,45.10
2018-12-26T09:51:43.466Z,44.57
2018-12-26T09:54:14.699Z,46.57
2018-12-26T09:57:05.044Z,44.67
2018-12-26T09:59:55.522Z,44.43
2018-12-26T10:02:45.404Z,46.03
2018-12-26T10:05:35.545Z,43.57
2018-12-26T10:08:26.048Z,45.43
2018-12-26T10:11:15.904Z,41.90
2018-12-26T10:14:05.775Z,43.27
2018-12-26T10:16:55.706Z,42.90
2018-12-26T10:19:45.893Z,42.97
2018-12-26T10:22:35.779Z,42.70
2018-12-26T10:25:25.748Z,42.00
2018-12-26T10:28:15.601Z,40.73
2018-12-26T10:31:05.495Z,40.67
2018-12-26T10:33:55.371Z,43.77
2018-12-26T10:36:45.254Z,42.57
2018-12-26T10:39:35.109Z,41.37
2018-12-26T10:42:25.270Z,41.90
2018-12-26T10:45:15.158Z,41.00
2018-12-26T10:47:57.485Z,39.97
2018-12-26T10:50:47.340Z,38.87
2018-12-26T10:53:37.219Z,39.90
2018-12-26T10:56:27.095Z,38.37
2018-12-26T10:59:17.325Z,39.27
2018-12-26T11:02:07.178Z,42.43
2018-12-26T11:04:57.098Z,39.73
2018-12-26T11:07:47.003Z,40.83
2018-12-26T11:10:36.852Z,42.57
2018-12-26T11:13:26.745Z,40.00
2018-12-26T11:16:17.118Z,40.00
2018-12-26T11:19:07.038Z,39.03
2018-12-26T11:21:56.979Z,39.57
2018-12-26T11:24:46.834Z,38.60
2018-12-26T11:27:36.838Z,37.03
2018-12-26T11:30:26.702Z,38.87
2018-12-26T11:33:16.574Z,36.57
2018-12-26T11:36:06.463Z,38.10
2018-12-26T11:38:56.537Z,41.47
2018-12-26T11:41:38.883Z,38.10
2018-12-26T11:44:28.778Z,38.57
2018-12-26T11:47:18.952Z,38.30
2018-12-26T11:50:09.051Z,39.37
2018-12-26T11:52:58.913Z,37.97
2018-12-26T11:55:48.797Z,39.07
2018-12-26T11:58:38.212Z,39.30
2018-12-26T12:01:27.430Z,37.93
2018-12-26T12:04:17.254Z,40.10
2018-12-26T12:07:07.159Z,37.47
2018-12-26T12:09:38.084Z,37.30
2018-12-26T12:12:09.001Z,35.93
2018-12-26T12:14:58.953Z,39.70
2018-12-26T12:17:48.876Z,37.10
2018-12-26T12:20:20.201Z,38.43
2018-12-26T12:23:10.641Z,36.47
2018-12-26T12:26:00.551Z,37.47
2018-12-26T12:28:50.744Z,40.23
2018-12-26T12:31:40.621Z,36.27
2018-12-26T12:34:30.493Z,37.83
2018-12-26T12:37:20.655Z,39.37
2018-12-26T12:40:12.321Z,37.27
2018-12-26T12:42:54.745Z,36.10
2018-12-26T12:45:44.710Z,36.97
2018-12-26T12:48:34.881Z,36.80
2018-12-26T12:51:24.845Z,36.63
2018-12-26T12:54:14.671Z,37.10
2018-12-26T12:57:04.539Z,35.07
2018-12-26T12:59:54.683Z,34.00
2018-12-26T13:02:44.567Z,34.60
2018-12-26T13:05:34.461Z,35.80
2018-12-26T13:08:24.354Z,34.73
2018-12-26T13:11:22.152Z,36.03
2018-12-26T13:14:12.261Z,35.43
2018-12-26T13:17:02.169Z,37.33
2018-12-26T13:19:52.026Z,37.70
2018-12-26T13:22:42.158Z,36.40
2018-12-26T13:25:32.155Z,39.00
2018-12-26T13:28:22.633Z,36.63
2018-12-26T13:31:12.525Z,38.07
2018-12-26T13:34:03.078Z,35.67
2018-12-26T13:36:53.218Z,37.30
2018-12-26T13:39:43.097Z,36.20
2018-12-26T13:42:32.993Z,35.23
2018-12-26T13:45:15.140Z,37.07
2018-12-26T13:48:05.087Z,32.57
2018-12-26T13:50:54.969Z,34.07
2018-12-26T13:53:45.099Z,33.23
2018-12-26T13:56:35.360Z,31.23
2018-12-26T13:59:25.268Z,28.73
2018-12-26T14:02:15.152Z,31.57
2018-12-26T14:05:05.094Z,31.57
2018-12-26T14:07:54.948Z,32.50
2018-12-26T14:10:44.883Z,31.67
2018-12-26T14:13:34.760Z,30.50
2018-12-26T14:16:24.911Z,30.57
2018-12-26T14:19:14.771Z,32.23
2018-12-26T14:22:04.676Z,30.77
2018-12-26T14:24:54.929Z,31.00
2018-12-26T14:27:29.452Z,29.43
2018-12-26T14:30:17.743Z,30.83
2018-12-26T14:33:07.610Z,29.57
2018-12-26T14:35:59.930Z,29.33
2018-12-26T14:38:49.726Z,30.67
2018-12-26T14:41:39.567Z,28.83
2018-12-26T14:44:21.793Z,29.57
2018-12-26T14:47:11.702Z,31.27
2018-12-26T14:50:01.515Z,27.37
2018-12-26T14:52:51.371Z,30.93
2018-12-26T14:55:41.245Z,32.90
2018-12-26T14:58:31.081Z,31.23
2018-12-26T15:01:20.974Z,31.00
2018-12-26T15:04:10.957Z,32.27
2018-12-26T15:07:01.087Z,34.07
2018-12-26T15:09:51.350Z,32.33
2018-12-26T15:12:41.216Z,33.57
2018-12-26T15:15:31.238Z,34.37
2018-12-26T15:18:21.164Z,34.70
2018-12-26T15:21:11.030Z,36.47
2018-12-26T15:24:00.932Z,36.93
2018-12-26T15:26:50.924Z,34.57
2018-12-26T15:29:40.851Z,35.77
2018-12-26T15:32:30.736Z,33.77
2018-12-26T15:35:20.917Z,36.93
2018-12-26T15:38:10.780Z,34.63
2018-12-26T15:41:00.946Z,37.40
2018-12-26T15:43:50.885Z,38.77
2018-12-26T15:46:34.571Z,37.47
2018-12-26T15:49:24.451Z,39.87
2018-12-26T15:52:14.305Z,41.53
2018-12-26T15:55:04.215Z,39.80
2018-12-26T15:57:35.092Z,40.90
2018-12-26T16:00:25.225Z,39.50
2018-12-26T16:03:15.071Z,38.30
2018-12-26T16:06:05.267Z,40.50
2018-12-26T16:08:55.394Z,41.50
2018-12-26T16:11:45.650Z,40.97
2018-12-26T16:14:16.503Z,38.10
2018-12-26T16:16:48.043Z,38.97
2018-12-26T16:19:37.910Z,41.90
2018-12-26T16:22:28.200Z,41.67
2018-12-26T16:25:18.062Z,41.80
2018-12-26T16:28:07.972Z,40.37
2018-12-26T16:30:58.475Z,40.50
2018-12-26T16:33:48.453Z,39.60
2018-12-26T16:36:38.351Z,40.27
2018-12-26T16:39:35.647Z,39.87
2018-12-26T16:42:20.538Z,38.03
2018-12-26T16:44:51.508Z,37.27
2018-12-26T16:47:41.656Z,38.00
2018-12-26T16:50:31.654Z,37.80
2018-12-26T16:53:21.785Z,39.67
2018-12-26T16:56:11.723Z,36.57
2018-12-26T16:59:01.587Z,38.10
2018-12-26T17:01:51.520Z,36.27
2018-12-26T17:04:41.559Z,39.87
2018-12-26T17:07:31.984Z,39.40
2018-12-26T17:13:32.945Z,34.77
2018-12-26T17:16:22.828Z,38.60
2018-12-26T17:19:12.932Z,37.97
2018-12-26T17:22:05.059Z,39.40
2018-12-26T17:24:54.955Z,37.87
2018-12-26T17:27:45.118Z,33.83
2018-12-26T17:31:03.891Z,37.37
2018-12-26T17:33:47.556Z,35.87
2018-12-26T17:39:34.784Z,35.00
2018-12-26T17:42:24.635Z,35.40
2018-12-26T17:45:05.508Z,36.20
2018-12-26T17:47:47.557Z,35.23
2018-12-26T17:50:59.429Z,37.07
2018-12-26T17:54:14.103Z,36.13
2018-12-26T17:57:25.010Z,36.40
2018-12-26T18:00:56.609Z,37.87
2018-12-26T18:03:49.840Z,36.33
2018-12-26T18:06:59.153Z,97.30
2018-12-26T18:10:10.024Z,34.37
2018-12-26T18:13:00.054Z,33.97
2018-12-26T18:15:31.550Z,34.87
2018-12-26T18:18:21.660Z,33.57
2018-12-26T18:21:11.554Z,33.90
2018-12-26T18:24:01.697Z,33.73
2018-12-26T18:26:51.633Z,37.37
2018-12-26T18:29:22.498Z,38.37
2018-12-26T18:32:12.498Z,39.40
2018-12-26T18:35:02.689Z,42.20
2018-12-26T18:37:52.567Z,40.73
2018-12-26T18:40:23.821Z,41.20
2018-12-26T18:43:06.465Z,42.87
2018-12-26T18:45:49.426Z,45.77
2018-12-26T18:48:41.012Z,45.83
2018-12-26T18:51:31.795Z,44.60
2018-12-26T18:54:02.928Z,46.67
2018-12-26T18:56:53.116Z,45.47
2018-12-26T18:59:24.005Z,45.77
2018-12-26T19:01:54.898Z,44.03
2018-12-26T19:04:26.095Z,43.27
2018-12-26T19:07:16.467Z,43.53
2018-12-26T19:13:16.243Z,42.70
2018-12-26T19:16:06.331Z,44.03
2018-12-26T19:18:56.790Z,40.93
2018-12-26T19:21:46.651Z,41.83
2018-12-26T19:24:17.846Z,39.93
2018-12-26T19:26:50.004Z,43.30
2018-12-26T19:29:21.200Z,42.00
2018-12-26T19:31:52.088Z,42.13
2018-12-26T19:34:42.477Z,40.50
2018-12-26T19:37:32.354Z,41.30
2018-12-26T19:40:22.386Z,41.40
2018-12-26T19:43:12.302Z,42.53
2018-12-26T19:46:02.222Z,41.97
2018-12-26T19:48:44.828Z,41.70
2018-12-26T19:51:35.151Z,40.43
2018-12-26T19:54:25.148Z,39.60
2018-12-26T19:57:15.282Z,37.63
2018-12-26T20:00:05.461Z,38.53
2018-12-26T20:02:55.340Z,36.33
2018-12-26T20:05:45.511Z,36.43
2018-12-26T20:08:35.953Z,34.27
2018-12-26T20:11:25.982Z,34.30
2018-12-26T20:13:57.057Z,35.57
2018-12-26T20:16:47.340Z,36.30
2018-12-26T20:19:37.158Z,36.33
2018-12-26T20:22:27.212Z,37.43
2018-12-26T20:25:17.131Z,35.50
2018-12-26T20:28:07.021Z,38.07
2018-12-26T20:30:56.841Z,40.90
2018-12-26T20:34:05.879Z,38.20
2018-12-26T20:36:55.765Z,40.33
2018-12-26T20:39:45.698Z,40.47
2018-12-26T20:42:36.160Z,40.17
2018-12-26T20:45:26.031Z,39.63
2018-12-26T20:48:16.178Z,40.03
2018-12-26T20:50:58.147Z,35.43
2018-12-26T20:53:50.000Z,37.07
2018-12-26T20:56:39.714Z,33.73
2018-12-26T20:59:11.242Z,33.63
2018-12-26T21:01:42.165Z,31.50
2018-12-26T21:04:32.075Z,30.23
2018-12-26T21:07:21.958Z,30.53
2018-12-26T21:10:11.989Z,29.60
2018-12-26T21:13:02.432Z,29.10
2018-12-26T21:15:33.313Z,30.27
2018-12-26T21:18:06.254Z,29.43
2018-12-26T21:20:37.268Z,27.90
2018-12-26T21:23:27.440Z,28.40
2018-12-26T21:26:17.258Z,27.37
2018-12-26T21:29:07.513Z,26.20
2018-12-26T21:31:57.360Z,25.37
2018-12-26T21:34:47.385Z,25.93
2018-12-26T21:37:37.256Z,24.20
2018-12-26T21:40:27.451Z,24.77
2018-12-26T21:43:10.032Z,24.03
2018-12-26T21:45:59.919Z,23.53
2018-12-26T21:48:49.901Z,23.73
2018-12-26T21:51:20.866Z,22.20
2018-12-26T21:54:10.690Z,22.10
2018-12-26T21:56:41.601Z,21.63
2018-12-26T21:59:31.772Z,20.90
2018-12-26T22:02:02.673Z,22.13
2018-12-26T22:04:52.543Z,20.70
2018-12-26T22:07:42.724Z,19.33
2018-12-26T22:10:32.769Z,21.70
2018-12-26T22:13:23.342Z,20.33
2018-12-26T22:16:13.352Z,20.03
2018-12-26T22:19:03.185Z,18.30
2018-12-26T22:21:53.135Z,18.53
2018-12-26T22:24:24.734Z,17.77
2018-12-26T22:27:14.710Z,17.53
2018-12-26T22:30:04.879Z,17.03
2018-12-26T22:32:54.728Z,17.60
2018-12-26T22:35:44.883Z,17.00
2018-12-26T22:38:34.838Z,16.17
2018-12-26T22:41:17.723Z,17.20
2018-12-26T22:44:07.650Z,17.30
2018-12-26T22:46:57.489Z,16.93
2018-12-26T22:49:28.821Z,16.70
2018-12-26T22:52:18.925Z,16.33
2018-12-26T22:55:08.815Z,17.03
2018-12-26T22:57:58.775Z,16.60
2018-12-26T23:00:49.077Z,17.33
2018-12-26T23:03:39.369Z,16.97
2018-12-26T23:06:29.241Z,16.80
2018-12-26T23:09:00.178Z,15.93
2018-12-26T23:11:31.329Z,15.67
2018-12-26T23:14:02.169Z,16.50
2018-12-26T23:16:33.936Z,15.50
2018-12-26T23:19:05.063Z,15.80
2018-12-26T23:21:36.038Z,15.90
2018-12-26T23:24:06.988Z,16.23
2018-12-26T23:26:37.902Z,15.20
2018-12-26T23:29:27.805Z,16.40
2018-12-26T23:32:18.255Z,15.47
2018-12-26T23:34:49.133Z,16.00
2018-12-26T23:37:20.061Z,15.40
2018-12-26T23:40:09.891Z,14.80
2018-12-26T23:42:53.099Z,15.17
2018-12-26T23:45:42.941Z,15.60
2018-12-26T23:48:32.884Z,15.63
2018-12-26T23:51:22.770Z,15.50
2018-12-26T23:54:12.996Z,16.00
2018-12-26T23:57:02.979Z,16.47
2018-12-26T23:59:52.976Z,16.73
